Time;durP1;ratioP1;P1;durP2;ratioP2;P2;SDS_P1;SDS_P2;PMS_P1;PMS_P2;Temp;Humidity;BMP_temperature;BMP_pressure;BME280_temperature;BME280_humidity;BME280_pressure;Samples;Min_cycle;Max_cycle;Signal;HPM_P1;HPM_P2
2023/12/07 00:01:51;;;;;;;32.97;15.37;;;;;;;-1.09;82.96;100995.92;125223;1102;104275;-84
2023/12/07 00:04:23;;;;;;;33.27;16.23;;;;;;;-1.11;82.55;100996.53;125009;1102;101935;-83
2023/12/07 00:06:54;;;;;;;33.93;15.63;;;;;;;-1.14;82.50;101003.98;125222;1102;101872;-84
2023/12/07 00:09:25;;;;;;;35.37;16.63;;;;;;;-1.16;82.54;100998.70;125071;1102;104077;-83
2023/12/07 00:11:57;;;;;;;31.87;15.57;;;;;;;-1.18;81.82;101002.81;125314;1100;104254;-82
2023/12/07 00:14:28;;;;;;;36.37;17.30;;;;;;;-1.15;82.89;100997.05;125077;1102;102368;-83
2023/12/07 00:17:00;;;;;;;32.87;16.40;;;;;;;-1.11;83.28;100994.89;125122;1102;104255;-84
2023/12/07 00:19:31;;;;;;;33.30;14.93;;;;;;;-1.14;82.82;100992.03;125458;1101;101994;-82
2023/12/07 00:22:02;;;;;;;36.40;16.50;;;;;;;-1.17;82.83;100991.76;125149;1102;101849;-84
2023/12/07 00:24:34;;;;;;;35.50;16.47;;;;;;;-1.16;83.01;100993.55;125004;1102;104191;-84
2023/12/07 00:27:07;;;;;;;31.80;15.57;;;;;;;-1.14;82.93;101004.91;125353;1102;101728;-82
2023/12/07 00:29:39;;;;;;;35.67;16.63;;;;;;;-1.13;82.85;101017.00;125399;1102;104190;-84
2023/12/07 00:32:11;;;;;;;34.83;14.63;;;;;;;-1.12;82.45;101017.93;125123;1101;102032;-84
2023/12/07 00:34:42;;;;;;;33.27;15.83;;;;;;;-1.16;82.69;101021.88;125213;1102;104169;-82
2023/12/07 00:37:14;;;;;;;31.33;15.07;;;;;;;-1.17;82.73;101014.02;125498;1102;102325;-83
2023/12/07 00:39:46;;;;;;;34.10;16.03;;;;;;;-1.19;81.97;101010.41;125264;1102;101785;-84
2023/12/07 00:42:17;;;;;;;30.90;14.40;;;;;;;-1.18;82.07;101007.08;125454;1101;104208;-81
2023/12/07 00:44:49;;;;;;;33.77;14.43;;;;;;;-1.22;81.78;101005.87;125472;1101;102422;-83
2023/12/07 00:47:20;;;;;;;32.33;16.10;;;;;;;-1.23;81.99;101005.73;125336;1102;104350;-82
2023/12/07 00:49:52;;;;;;;34.90;16.17;;;;;;;-1.25;81.96;101007.27;125476;1102;104581;-82
2023/12/07 00:52:23;;;;;;;31.17;14.63;;;;;;;-1.26;82.01;100998.66;125276;1101;101794;-82
2023/12/07 00:54:55;;;;;;;40.03;17.30;;;;;;;-1.26;82.42;101003.80;125038;1102;104323;-84
2023/12/07 00:57:26;;;;;;;37.37;17.37;;;;;;;-1.23;81.77;100998.93;124924;1102;107883;-84
2023/12/07 00:59:57;;;;;;;33.83;15.50;;;;;;;-1.21;82.20;101002.54;125150;1102;102204;-83
2023/12/07 01:02:29;;;;;;;32.30;13.77;;;;;;;-1.25;81.05;100992.71;125114;1102;104198;-84
2023/12/07 01:05:00;;;;;;;32.40;16.47;;;;;;;-1.28;80.92;101002.73;125247;1102;101782;-83
2023/12/07 01:07:32;;;;;;;31.37;15.67;;;;;;;-1.28;81.12;101001.09;125130;1102;101897;-84
2023/12/07 01:10:04;;;;;;;33.43;15.93;;;;;;;-1.25;81.47;100995.29;125068;1101;104239;-84
2023/12/07 01:12:36;;;;;;;31.43;14.90;;;;;;;-1.23;81.05;100983.48;125028;1102;104245;-84
2023/12/07 01:15:09;;;;;;;33.20;16.33;;;;;;;-1.25;82.00;100984.09;124979;1102;102489;-84
2023/12/07 01:17:41;;;;;;;36.40;17.33;;;;;;;-1.24;81.82;100980.77;125187;1102;102354;-84
2023/12/07 01:20:14;;;;;;;31.37;15.17;;;;;;;-1.28;81.51;100983.06;125264;1102;104245;-84
2023/12/07 01:22:46;;;;;;;30.50;14.07;;;;;;;-1.24;81.60;100981.66;125173;1102;104169;-83
2023/12/07 01:25:21;;;;;;;32.83;16.03;;;;;;;-1.28;81.24;100974.41;125250;1102;104175;-84
2023/12/07 01:27:53;;;;;;;33.53;16.17;;;;;;;-1.23;82.11;100977.41;124927;1102;102022;-84
2023/12/07 01:30:24;;;;;;;35.90;16.83;;;;;;;-1.24;81.90;100984.23;125234;1102;101875;-83
2023/12/07 01:32:56;;;;;;;33.03;16.60;;;;;;;-1.24;81.50;100991.06;125117;1102;104188;-84
2023/12/07 01:35:28;;;;;;;35.77;17.07;;;;;;;-1.20;82.80;100985.41;124916;1102;102005;-84
2023/12/07 01:37:59;;;;;;;31.60;15.50;;;;;;;-1.15;82.09;100972.19;125082;1102;104182;-84
2023/12/07 01:40:31;;;;;;;33.07;15.47;;;;;;;-1.16;81.83;100977.20;125273;1102;104155;-84
2023/12/07 01:43:02;;;;;;;31.10;14.73;;;;;;;-1.17;80.92;100975.38;125178;1102;104255;-83
2023/12/07 01:45:34;;;;;;;33.97;16.17;;;;;;;-1.21;81.05;100969.06;125125;1102;102189;-85
2023/12/07 01:48:06;;;;;;;32.55;15.05;;;;;;;-1.19;81.84;100964.05;124993;1102;104226;-83
2023/12/07 01:50:37;;;;;;;32.67;15.20;;;;;;;-1.22;80.99;100958.63;125433;1101;104172;-84
2023/12/07 01:53:09;;;;;;;31.13;15.27;;;;;;;-1.27;81.30;100969.40;125180;1102;104252;-84
2023/12/07 01:55:41;;;;;;;34.37;15.60;;;;;;;-1.28;81.74;100975.34;125095;1101;102291;-84
2023/12/07 01:58:13;;;;;;;37.23;16.37;;;;;;;-1.23;81.58;100980.91;125004;1102;102189;-84
2023/12/07 02:00:45;;;;;;;35.00;14.47;;;;;;;-1.20;82.42;100981.19;124959;1102;104073;-84
2023/12/07 02:03:19;;;;;;;35.83;15.47;;;;;;;-1.24;82.11;100986.81;125207;1102;102167;-83
2023/12/07 02:05:52;;;;;;;37.20;15.72;;;;;;;-1.32;81.98;100978.39;125266;1101;102807;-84
2023/12/07 02:08:24;;;;;;;30.80;13.80;;;;;;;-1.35;81.00;100979.80;125114;1102;104256;-83
2023/12/07 02:10:56;;;;;;;30.77;14.70;;;;;;;-1.37;81.76;100984.80;125011;1100;104441;-83
2023/12/07 02:13:27;;;;;;;32.33;16.23;;;;;;;-1.36;81.74;100977.97;125018;1102;102019;-84
2023/12/07 02:16:01;;;;;;;33.83;16.20;;;;;;;-1.35;81.34;100972.96;125058;1102;102640;-84
2023/12/07 02:18:39;;;;;;;33.78;17.05;;;;;;;-1.34;81.89;100973.86;125034;1102;101859;-84
2023/12/07 02:21:17;;;;;;;31.80;15.20;;;;;;;-1.31;81.76;100980.21;125177;1101;102361;-83
2023/12/07 02:23:52;;;;;;;33.17;15.13;;;;;;;-1.32;81.27;100977.50;125258;1102;104194;-84
2023/12/07 02:26:35;;;;;;;32.45;14.15;;;;;;;-1.38;82.07;100970.11;125150;1102;104117;-83
2023/12/07 02:29:07;;;;;;;31.60;15.10;;;;;;;-1.38;81.74;100976.94;125066;1102;104069;-84
2023/12/07 02:31:38;;;;;;;31.07;14.20;;;;;;;-1.39;81.88;100972.55;124984;1102;101925;-83
2023/12/07 02:34:10;;;;;;;32.63;15.33;;;;;;;-1.38;81.41;100972.69;125086;1102;104182;-83
2023/12/07 02:36:43;;;;;;;33.77;15.57;;;;;;;-1.39;81.81;100970.86;125106;1102;104121;-83
2023/12/07 02:39:15;;;;;;;33.38;16.00;;;;;;;-1.37;81.80;100973.58;125054;1102;104211;-84
2023/12/07 02:41:49;;;;;;;30.97;15.33;;;;;;;-1.32;82.25;100969.77;124976;1102;102104;-84
2023/12/07 02:44:21;;;;;;;34.10;16.07;;;;;;;-1.26;82.76;100962.60;124771;1102;102202;-85
2023/12/07 02:46:53;;;;;;;30.07;15.37;;;;;;;-1.25;82.30;100971.22;124871;1102;101869;-84
2023/12/07 02:49:24;;;;;;;30.37;14.57;;;;;;;-1.26;81.83;100970.33;124997;1102;104268;-84
2023/12/07 02:51:56;;;;;;;30.37;14.37;;;;;;;-1.25;82.80;100972.11;124912;1102;102125;-84
2023/12/07 02:54:27;;;;;;;30.83;13.50;;;;;;;-1.20;82.69;100963.16;125015;1102;101887;-83
2023/12/07 02:56:58;;;;;;;32.63;15.70;;;;;;;-1.18;81.94;100977.06;124886;1102;104184;-84
2023/12/07 02:59:30;;;;;;;30.17;13.90;;;;;;;-1.28;82.55;100954.73;125001;1102;102146;-84
2023/12/07 03:02:01;;;;;;;31.27;14.43;;;;;;;-1.17;81.44;100972.80;124957;1102;104175;-84
2023/12/07 03:04:33;;;;;;;30.43;14.03;;;;;;;-1.16;82.21;100975.52;125040;1102;102035;-84
2023/12/07 03:07:04;;;;;;;29.87;14.37;;;;;;;-1.16;81.98;100985.82;124970;1102;104312;-84
2023/12/07 03:09:36;;;;;;;29.70;14.13;;;;;;;-1.18;81.24;100976.17;125003;1102;102358;-84
2023/12/07 03:12:08;;;;;;;29.03;12.93;;;;;;;-1.19;82.10;100980.39;124974;1102;101843;-85
2023/12/07 03:14:40;;;;;;;31.27;12.80;;;;;;;-1.15;82.05;100987.64;125049;1102;104248;-85
2023/12/07 03:17:11;;;;;;;28.53;13.13;;;;;;;-1.16;81.85;100984.92;124993;1102;101820;-84
2023/12/07 03:19:43;;;;;;;28.13;13.90;;;;;;;-1.18;81.83;100997.66;124998;1102;102204;-84
2023/12/07 03:22:14;;;;;;;29.53;13.23;;;;;;;-1.23;81.66;100996.35;125062;1102;103017;-85
2023/12/07 03:24:50;;;;;;;28.93;12.73;;;;;;;-1.27;81.43;101008.02;125182;1102;104246;-83
2023/12/07 03:27:21;;;;;;;31.70;13.87;;;;;;;-1.31;81.62;100999.87;125077;1102;102006;-83
2023/12/07 03:29:53;;;;;;;27.87;12.63;;;;;;;-1.27;81.62;100999.41;124903;1102;102629;-84
2023/12/07 03:32:24;;;;;;;27.67;12.43;;;;;;;-1.21;82.75;100991.34;124979;1102;102025;-83
2023/12/07 03:34:56;;;;;;;28.70;12.90;;;;;;;-1.20;82.62;100999.20;125053;1102;102039;-83
2023/12/07 03:37:27;;;;;;;31.60;14.50;;;;;;;-1.25;82.34;100996.97;125132;1101;102019;-83
2023/12/07 03:39:59;;;;;;;30.10;14.13;;;;;;;-1.29;81.78;100995.80;125092;1102;101996;-84
2023/12/07 03:42:30;;;;;;;28.60;13.07;;;;;;;-1.26;82.00;100996.08;124952;1102;101774;-84
2023/12/07 03:45:01;;;;;;;34.47;15.13;;;;;;;-1.26;82.39;100996.08;124987;1102;101916;-84
2023/12/07 03:47:33;;;;;;;30.07;14.73;;;;;;;-1.27;81.73;100991.68;125058;1102;102319;-84
2023/12/07 03:50:05;;;;;;;29.70;14.43;;;;;;;-1.25;82.04;100995.29;124925;1102;102597;-84
2023/12/07 03:52:36;;;;;;;28.00;13.40;;;;;;;-1.23;81.82;100988.63;125048;1101;102160;-84
2023/12/07 03:55:10;;;;;;;29.73;14.20;;;;;;;-1.24;82.13;100991.95;124952;1102;102753;-84
2023/12/07 03:57:42;;;;;;;31.33;15.05;;;;;;;-1.25;82.04;100992.71;125068;1102;104248;-84
2023/12/07 04:00:16;;;;;;;31.73;13.90;;;;;;;-1.24;82.15;100996.22;124981;1102;104252;-84
2023/12/07 04:02:46;;;;;;;;;;;;;;;-1.22;82.07;101003.30;125100;1102;104229;-84
2023/12/07 04:05:17;;;;;;;30.87;15.03;;;;;;;-1.25;81.56;100990.14;125000;1102;102550;-83
2023/12/07 04:07:49;;;;;;;30.07;14.27;;;;;;;-1.24;81.75;100991.06;125099;1102;101968;-84
2023/12/07 04:10:22;;;;;;;29.63;13.50;;;;;;;-1.25;82.64;100995.29;125224;1102;104133;-85
2023/12/07 04:12:53;;;;;;;30.17;14.10;;;;;;;-1.24;82.71;100994.53;125018;1102;104255;-84
2023/12/07 04:15:25;;;;;;;29.23;13.70;;;;;;;-1.25;81.70;100984.98;124998;1102;102195;-84
2023/12/07 04:17:56;;;;;;;29.80;13.60;;;;;;;-1.24;81.94;100989.38;124977;1102;102276;-83
2023/12/07 04:20:28;;;;;;;30.77;13.73;;;;;;;-1.24;81.66;100989.38;124946;1102;104095;-84
2023/12/07 04:23:00;;;;;;;28.90;12.57;;;;;;;-1.24;82.33;100986.81;125100;1102;104176;-83
2023/12/07 04:25:31;;;;;;;27.87;13.07;;;;;;;-1.27;81.90;100984.84;125044;1102;104762;-83
2023/12/07 04:28:03;;;;;;;28.90;13.80;;;;;;;-1.24;82.35;100991.95;125015;1101;101859;-83
2023/12/07 04:30:34;;;;;;;27.67;13.13;;;;;;;-1.24;81.93;100989.38;125075;1102;102634;-84
2023/12/07 04:33:06;;;;;;;30.37;12.83;;;;;;;-1.25;82.36;100995.29;125136;1102;104271;-84
2023/12/07 04:35:37;;;;;;;26.23;12.03;;;;;;;-1.24;82.30;100997.11;125084;1102;104179;-83
2023/12/07 04:38:09;;;;;;;29.30;12.67;;;;;;;-1.23;82.45;100992.85;125047;1102;102175;-84
2023/12/07 04:40:41;;;;;;;27.10;11.13;;;;;;;-1.23;81.47;100990.28;125299;1102;101832;-84
2023/12/07 04:43:13;;;;;;;32.60;13.53;;;;;;;-1.28;82.42;100993.36;125112;1102;104343;-84
2023/12/07 04:45:44;;;;;;;28.97;12.00;;;;;;;-1.30;82.38;100992.30;125260;1102;102350;-82
2023/12/07 04:48:16;;;;;;;26.33;10.80;;;;;;;-1.30;82.28;101007.75;125230;1102;104272;-82
2023/12/07 04:50:47;;;;;;;29.10;11.50;;;;;;;-1.32;81.73;101004.14;125336;1102;102709;-82
2023/12/07 04:53:19;;;;;;;31.87;12.37;;;;;;;-1.38;82.10;100989.81;125328;1101;104188;-81
2023/12/07 04:55:50;;;;;;;25.07;11.07;;;;;;;-1.41;81.74;100985.28;125440;1101;104214;-84
2023/12/07 04:58:21;;;;;;;27.20;11.63;;;;;;;-1.41;81.40;100985.28;125156;1102;104267;-85
2023/12/07 05:00:53;;;;;;;26.40;11.90;;;;;;;-1.38;82.38;100997.53;125495;1102;104178;-83
2023/12/07 05:03:24;;;;;;;29.00;12.37;;;;;;;-1.42;81.82;100987.71;125461;1102;104239;-85
2023/12/07 05:05:56;;;;;;;30.57;12.93;;;;;;;-1.43;82.37;101003.91;125863;1102;102009;-83
2023/12/07 05:08:27;;;;;;;31.63;12.40;;;;;;;-1.42;82.21;101000.58;126048;1102;101927;-83
2023/12/07 05:10:59;;;;;;;28.97;13.03;;;;;;;-1.45;82.42;100986.67;125496;1102;102076;-82
2023/12/07 05:13:30;;;;;;;29.70;13.60;;;;;;;-1.45;82.53;100990.90;125620;1102;104273;-84
2023/12/07 05:16:02;;;;;;;28.33;12.00;;;;;;;-1.45;82.50;100989.25;126020;1102;102093;-84
2023/12/07 05:18:36;;;;;;;28.90;13.20;;;;;;;-1.41;82.53;100997.26;125807;1102;104251;-83
2023/12/07 05:21:11;;;;;;;33.17;13.00;;;;;;;-1.40;82.12;100992.25;125753;1102;102058;-83
2023/12/07 05:23:44;;;;;;;28.07;13.00;;;;;;;-1.43;81.92;100998.77;125970;1102;104178;-83
2023/12/07 05:26:17;;;;;;;26.90;11.43;;;;;;;-1.46;82.25;101004.56;126392;1093;101794;-81
2023/12/07 05:28:49;;;;;;;29.93;12.33;;;;;;;-1.54;81.04;101000.35;126387;1101;105284;-82
2023/12/07 05:31:25;;;;;;;30.57;12.37;;;;;;;-1.59;82.41;101005.11;125654;1102;102073;-81
2023/12/07 05:33:59;;;;;;;29.63;13.10;;;;;;;-1.61;82.39;101005.72;127383;1101;102077;-83
2023/12/07 05:36:30;;;;;;;40.47;18.87;;;;;;;-1.61;82.09;101006.61;126078;1102;102065;-83
2023/12/07 05:39:07;;;;;;;36.53;15.40;;;;;;;-1.59;82.25;101014.48;126051;1102;102015;-83
2023/12/07 05:41:38;;;;;;;30.92;13.43;;;;;;;-1.62;81.65;101012.55;127022;1101;104201;-81
2023/12/07 05:44:10;;;;;;;30.97;12.77;;;;;;;-1.64;82.41;101011.48;125856;1102;104281;-82
2023/12/07 05:46:44;;;;;;;31.43;13.47;;;;;;;-1.68;82.54;101010.30;126141;1102;102091;-83
2023/12/07 05:49:15;;;;;;;35.07;15.17;;;;;;;-1.72;82.07;101010.77;125968;1101;102685;-83
2023/12/07 05:54:56;;;;;;;36.03;14.37;;;;;;;-1.74;82.60;101011.41;125872;1102;104278;-82
2023/12/07 05:57:28;;;;;;;38.03;15.27;;;;;;;-1.74;82.15;101020.02;125975;1102;104114;-81
2023/12/07 06:00:16;;;;;;;35.73;15.97;;;;;;;-1.69;82.52;101017.88;125736;1102;102089;-81
2023/12/07 06:02:49;;;;;;;34.33;14.57;;;;;;;-1.69;81.58;101020.45;125740;1102;104085;-81
2023/12/07 06:05:21;;;;;;;35.63;15.33;;;;;;;-1.70;81.56;101016.05;125366;1102;102032;-81
2023/12/07 06:07:56;;;;;;;33.67;14.23;;;;;;;-1.70;81.52;101013.48;125223;1101;102917;-79
2023/12/07 06:10:38;;;;;;;35.90;14.17;;;;;;;-1.65;82.96;101018.30;126845;1093;103216;-81
2023/12/07 06:13:16;;;;;;;30.60;12.97;;;;;;;-1.63;81.42;101029.63;126025;1093;103150;-81
2023/12/07 06:15:56;;;;;;;31.80;14.53;;;;;;;-1.64;82.46;101017.55;125298;1102;102169;-78
2023/12/07 06:18:33;;;;;;;35.27;15.10;;;;;;;-1.62;81.88;101015.12;126408;1101;102702;-80
2023/12/07 06:21:25;;;;;;;33.13;14.53;;;;;;;-1.63;82.42;101011.62;124889;1102;102103;-79
2023/12/07 06:24:13;;;;;;;31.63;14.03;;;;;;;-1.65;82.15;101015.73;124997;1102;118289;-81
2023/12/07 06:27:17;;;;;;;32.17;12.77;;;;;;;-1.66;81.75;101018.16;125633;1102;104185;-81
2023/12/07 06:30:24;;;;;;;34.00;14.10;;;;;;;-1.72;82.03;101020.17;125195;1102;103928;-80
2023/12/07 06:33:11;;;;;;;34.83;15.03;;;;;;;-1.73;82.78;101024.42;126545;1101;101629;-80
2023/12/07 06:35:50;;;;;;;33.50;14.50;;;;;;;-1.72;81.48;101023.63;126751;1101;101665;-79
2023/12/07 06:38:43;;;;;;;34.33;14.70;;;;;;;-1.70;82.05;101032.42;125359;1102;104181;-80
2023/12/07 06:41:51;;;;;;;34.90;15.05;;;;;;;-1.72;82.73;101030.46;125285;1102;101811;-80
2023/12/07 06:44:46;;;;;;;26.97;12.13;;;;;;;-1.74;82.31;101035.47;125279;1102;103836;-83
2023/12/07 06:47:26;;;;;;;37.07;14.67;;;;;;;-1.74;81.77;101016.56;125569;1101;101935;-79
2023/12/07 06:50:13;;;;;;;32.93;13.83;;;;;;;-1.72;82.91;101022.73;125263;1102;101762;-77
2023/12/07 06:53:28;;;;;;;38.00;15.13;;;;;;;-1.73;81.97;101008.05;126237;1101;102328;-80
2023/12/07 06:56:40;;;;;;;33.37;14.90;;;;;;;-1.68;82.92;101018.02;125763;1101;102084;-77
2023/12/07 06:59:12;;;;;;;35.07;15.30;;;;;;;-1.68;82.12;101030.89;125928;1102;102374;-74
2023/12/07 07:01:54;;;;;;;42.57;16.30;;;;;;;-1.67;82.41;101024.98;124455;1102;102378;-77
2023/12/07 07:04:25;;;;;;;33.57;14.23;;;;;;;-1.62;82.44;101027.98;126165;1090;102440;-78
2023/12/07 07:07:00;;;;;;;37.47;15.33;;;;;;;-1.59;81.93;101028.27;127115;1100;102420;-77
2023/12/07 07:09:33;;;;;;;32.57;13.23;;;;;;;-1.57;82.22;101031.88;125985;1102;101938;-77
2023/12/07 07:12:21;;;;;;;36.73;15.27;;;;;;;-1.57;82.19;101030.95;126523;1101;101656;-77
2023/12/07 07:15:09;;;;;;;34.57;14.73;;;;;;;-1.60;82.62;101034.17;125465;1102;101958;-79
2023/12/07 07:17:52;;;;;;;33.60;15.20;;;;;;;-1.56;82.13;101036.25;126824;1101;101716;-79
2023/12/07 07:20:27;;;;;;;37.33;15.00;;;;;;;-1.50;83.11;101029.09;126255;1102;102223;-78
2023/12/07 07:23:04;;;;;;;35.80;14.80;;;;;;;-1.46;82.09;101020.90;124686;1102;101904;-77
2023/12/07 07:25:47;;;;;;;39.87;15.10;;;;;;;-1.40;82.44;101022.21;125767;1100;104147;-80
2023/12/07 07:28:22;;;;;;;33.83;14.87;;;;;;;-1.42;82.08;101016.03;126095;1101;101733;-80
2023/12/07 07:30:55;;;;;;;33.63;14.33;;;;;;;-1.43;82.23;101009.06;125169;1102;102022;-80
2023/12/07 07:33:29;;;;;;;39.93;15.77;;;;;;;-1.41;81.64;101007.55;126013;1102;101901;-80
2023/12/07 07:36:18;;;;;;;33.17;15.63;;;;;;;-1.37;82.48;101017.34;127066;1100;101772;-79
2023/12/07 07:38:50;;;;;;;32.97;14.83;;;;;;;-1.45;81.50;101008.92;124497;1102;102261;-77
2023/12/07 07:41:24;;;;;;;33.00;15.05;;;;;;;-1.35;82.33;101019.30;125275;1101;104240;-77
2023/12/07 07:44:02;;;;;;;35.67;15.80;;;;;;;-1.31;81.87;101033.36;124377;1102;104313;-76
2023/12/07 07:46:34;;;;;;;33.40;15.00;;;;;;;-1.30;82.41;101036.06;125326;1102;104191;-79
2023/12/07 07:49:06;;;;;;;;;;;;;;;-1.25;81.37;101049.36;125753;1101;102296;-77
2023/12/07 07:51:43;;;;;;;31.03;13.17;;;;;;;-1.17;81.97;101052.64;126220;1089;101811;-77
2023/12/07 07:54:27;;;;;;;34.85;15.25;;;;;;;-1.11;81.43;101042.90;125253;1102;101829;-82
2023/12/07 07:57:04;;;;;;;36.23;14.30;;;;;;;-1.03;82.02;101046.17;126940;1100;101339;-82
2023/12/07 07:59:44;;;;;;;31.60;12.93;;;;;;;-0.99;80.70;101053.42;126660;1100;102018;-83
2023/12/07 08:02:31;;;;;;;32.47;13.83;;;;;;;-1.01;81.31;101060.08;125907;1102;101738;-88
2023/12/07 08:05:24;;;;;;;31.10;13.20;;;;;;;-0.98;80.36;101056.14;126132;1102;101783;-81
2023/12/07 08:08:15;;;;;;;32.13;13.50;;;;;;;-1.00;81.18;101052.49;126553;1100;104174;-80
2023/12/07 08:10:47;;;;;;;34.87;14.93;;;;;;;-0.90;81.57;101049.10;126298;1102;101766;-76
2023/12/07 08:13:23;;;;;;;37.20;14.50;;;;;;;-0.80;81.90;101055.98;126229;1101;101999;-80
2023/12/07 08:16:19;;;;;;;;;;;;;;;;;;;;;
2023/12/07 08:18:56;;;;;;;28.60;12.70;;;;;;;-0.76;80.80;101060.65;125649;1101;101875;-78
2023/12/07 08:21:31;;;;;;;28.53;12.93;;;;;;;-0.89;79.61;101052.57;125582;1101;102236;-83
2023/12/07 08:28:15;;;;;;;29.77;13.23;;;;;;;-0.91;80.62;101055.01;126038;1102;118644;-81
2023/12/07 08:31:06;;;;;;;33.88;14.70;;;;;;;-0.83;80.59;101054.02;126427;1101;101512;-80
2023/12/07 08:33:40;;;;;;;32.03;15.03;;;;;;;-0.78;81.32;101055.36;125947;1102;101726;-82
2023/12/07 08:36:13;;;;;;;30.40;13.20;;;;;;;-0.75;81.14;101053.05;127149;1093;101539;-82
2023/12/07 08:39:19;;;;;;;;;;;;;;;;;;;;;
2023/12/07 08:42:11;;;;;;;38.13;15.77;;;;;;;-0.77;80.96;101033.95;125878;1102;102268;-81
2023/12/07 08:47:54;;;;;;;30.37;13.50;;;;;;;-0.74;80.78;101023.02;126485;1101;101804;-80
2023/12/07 08:50:35;;;;;;;30.10;14.17;;;;;;;-0.76;80.54;101019.42;125944;1101;101738;-81
2023/12/07 08:53:24;;;;;;;29.23;12.47;;;;;;;-0.78;81.09;101029.59;127093;1101;101700;-84
2023/12/07 08:55:57;;;;;;;27.37;12.50;;;;;;;-0.75;80.98;101032.44;125765;1101;102319;-83
2023/12/07 08:58:37;;;;;;;31.50;13.72;;;;;;;-0.67;80.84;101027.97;125789;1102;101827;-80
2023/12/07 09:01:38;;;;;;;;;;;;;;;;;;;;;
2023/12/07 09:04:11;;;;;;;33.40;13.87;;;;;;;-0.62;80.78;101023.22;127353;1101;101207;-82
2023/12/07 09:07:00;;;;;;;33.57;14.60;;;;;;;-0.61;80.73;101010.47;126144;1102;101926;-83
2023/12/07 09:09:34;;;;;;;31.10;13.73;;;;;;;-0.58;80.75;101020.13;126812;1100;102356;-79
2023/12/07 09:12:23;;;;;;;29.77;13.23;;;;;;;-0.62;81.25;101018.95;126796;1101;101920;-81
2023/12/07 09:15:21;;;;;;;31.70;15.00;;;;;;;-0.59;81.08;101013.18;127360;1101;101442;-82
2023/12/07 09:18:11;;;;;;;36.10;15.23;;;;;;;-0.55;81.70;101011.01;126927;1101;101481;-81
2023/12/07 09:21:08;;;;;;;32.80;13.80;;;;;;;-0.51;81.72;101006.09;126199;1102;101788;-82
2023/12/07 09:23:50;;;;;;;38.97;15.53;;;;;;;-0.49;81.23;101009.73;126192;1102;102412;-80
2023/12/07 09:26:50;;;;;;;36.60;14.53;;;;;;;-0.50;81.85;100998.48;126209;1102;104162;-84
2023/12/07 09:30:10;;;;;;;32.60;14.57;;;;;;;-0.42;81.58;101000.09;127140;1101;101669;-84
2023/12/07 09:33:18;;;;;;;33.67;14.83;;;;;;;-0.34;81.96;100992.09;127324;1101;101619;-83
2023/12/07 09:35:57;;;;;;;32.57;13.27;;;;;;;-0.28;81.14;100996.14;127140;1101;101448;-80
2023/12/07 09:38:39;;;;;;;33.43;13.30;;;;;;;-0.40;81.09;101001.11;125161;1102;104201;-85
2023/12/07 09:41:17;;;;;;;29.43;12.80;;;;;;;-0.48;81.88;100985.73;125634;1102;104153;-80
2023/12/07 09:44:35;;;;;;;;;;;;;;;;;;;;;
2023/12/07 09:47:11;;;;;;;31.40;11.10;;;;;;;-0.52;81.61;100993.99;126041;1101;101885;-79
2023/12/07 09:50:09;;;;;;;30.15;12.23;;;;;;;-0.59;81.99;100992.56;125746;1102;104182;-83
2023/12/07 09:58:44;;;;;;;29.70;12.87;;;;;;;-0.54;81.75;100980.97;125853;1102;101615;-81
2023/12/07 10:01:26;;;;;;;33.17;14.37;;;;;;;-0.51;81.96;100970.00;126686;1101;101728;-81
2023/12/07 10:06:55;;;;;;;31.90;13.85;;;;;;;-0.46;81.98;100969.64;126802;1101;101684;-84
2023/12/07 10:09:29;;;;;;;28.67;12.77;;;;;;;-0.37;82.04;100973.02;127061;1101;104149;-81
2023/12/07 10:12:14;;;;;;;32.10;12.87;;;;;;;-0.37;81.85;100979.86;126216;1102;101820;-83
2023/12/07 10:14:48;;;;;;;33.40;13.67;;;;;;;-0.44;81.24;100968.09;125176;1105;101986;-81
2023/12/07 10:17:19;;;;;;;;;;;;;;;-0.41;81.43;100970.93;125902;1102;104201;-81
2023/12/07 10:20:11;;;;;;;31.13;12.53;;;;;;;-0.38;81.46;100973.78;125924;1102;102097;-80
2023/12/07 10:22:49;;;;;;;33.30;13.90;;;;;;;-0.41;81.53;100970.04;125733;1102;102819;-79
2023/12/07 10:25:25;;;;;;;34.43;12.53;;;;;;;-0.42;81.40;100963.06;125714;1102;104185;-82
2023/12/07 10:28:06;;;;;;;33.40;14.30;;;;;;;-0.42;81.98;100961.41;126326;1102;102403;-85
2023/12/07 10:30:46;;;;;;;31.40;12.33;;;;;;;-0.37;82.05;100954.97;127057;1102;101733;-83
2023/12/07 10:33:34;;;;;;;31.70;13.00;;;;;;;-0.36;81.98;100958.44;126446;1101;104175;-82
2023/12/07 10:36:14;;;;;;;33.87;12.03;;;;;;;-0.37;81.74;100961.81;125706;1101;101978;-83
2023/12/07 10:38:50;;;;;;;32.60;13.00;;;;;;;-0.37;81.94;100954.97;126281;1102;101891;-86
2023/12/07 10:41:25;;;;;;;34.20;13.47;;;;;;;-0.31;81.87;100961.41;125657;1105;102045;-84
2023/12/07 10:48:07;;;;;;;33.70;12.70;;;;;;;-0.22;81.53;100957.98;125905;1105;102443;-85
2023/12/07 10:50:46;;;;;;;30.10;12.70;;;;;;;-0.20;81.68;100952.95;125804;1104;108355;-85
2023/12/07 10:53:28;;;;;;;34.63;13.83;;;;;;;-0.23;81.10;100953.58;125786;1105;102346;-85
2023/12/07 10:56:06;;;;;;;31.20;13.90;;;;;;;-0.24;81.40;100958.61;125657;1105;104419;-84
2023/12/07 10:58:45;;;;;;;31.10;13.63;;;;;;;-0.22;81.62;100954.47;125354;1105;102275;-83
2023/12/07 11:01:22;;;;;;;34.43;12.80;;;;;;;-0.14;81.92;100942.23;125296;1096;102557;-82
2023/12/07 11:03:54;;;;;;;31.83;13.40;;;;;;;-0.07;81.67;100950.62;125730;1105;101613;-81
2023/12/07 11:06:52;;;;;;;35.90;14.23;;;;;;;-0.07;81.61;100948.05;125391;1105;101852;-82
2023/12/07 11:09:32;;;;;;;32.88;13.90;;;;;;;-0.08;81.05;100951.42;125559;1104;104211;-80
2023/12/07 11:15:34;;;;;;;32.20;13.90;;;;;;;-0.07;81.29;100937.73;125671;1105;101800;-81
2023/12/07 11:18:09;;;;;;;34.23;11.97;;;;;;;-0.09;80.61;100952.19;125970;1105;102086;-82
2023/12/07 11:20:56;;;;;;;33.20;13.50;;;;;;;-0.15;81.13;100940.45;125195;1105;101899;-83
2023/12/07 11:23:29;;;;;;;29.70;12.03;;;;;;;-0.17;80.62;100950.64;125454;1105;118507;-81
2023/12/07 11:26:14;;;;;;;29.67;11.67;;;;;;;-0.23;80.52;100934.63;125651;1105;102029;-85
2023/12/07 11:28:57;;;;;;;30.17;12.77;;;;;;;-0.29;81.13;100937.58;125627;1104;102541;-82
2023/12/07 11:32:03;;;;;;;30.30;12.07;;;;;;;-0.24;80.95;100943.13;125911;1105;104188;-82
2023/12/07 11:35:10;;;;;;;33.20;14.03;;;;;;;-0.22;81.35;100936.42;125207;1103;104249;-81
2023/12/07 11:38:07;;;;;;;31.17;14.20;;;;;;;-0.18;81.43;100933.34;125888;1101;104176;-80
2023/12/07 11:44:02;;;;;;;28.83;12.30;;;;;;;-0.16;81.18;100934.36;126088;1099;104188;-82
2023/12/07 11:46:55;;;;;;;29.37;12.33;;;;;;;-0.13;81.50;100934.63;125218;1105;104185;-83
2023/12/07 11:49:36;;;;;;;29.65;12.25;;;;;;;-0.11;80.77;100939.91;125947;1104;104242;-84
2023/12/07 11:52:37;;;;;;;32.30;12.23;;;;;;;-0.15;80.69;100936.18;125391;1105;104185;-82
2023/12/07 11:55:20;;;;;;;30.33;12.27;;;;;;;-0.17;80.84;100937.73;125705;1104;101915;-83
2023/12/07 11:57:53;;;;;;;32.10;12.33;;;;;;;-0.16;80.73;100933.47;125121;1105;104200;-82
2023/12/07 12:00:47;;;;;;;34.07;12.87;;;;;;;-0.12;81.09;100930.39;125077;1105;104567;-85
2023/12/07 12:03:30;;;;;;;;;;;;;;;;;;;;;
2023/12/07 12:06:36;;;;;;;;;;;;;;;;;;;;;
2023/12/07 12:09:34;;;;;;;29.37;12.57;;;;;;;-0.15;81.27;100933.60;125082;1105;103247;-80
2023/12/07 12:12:09;;;;;;;27.97;11.43;;;;;;;-0.11;81.17;100934.75;125251;1104;104192;-82
2023/12/07 12:15:03;;;;;;;31.10;12.67;;;;;;;-0.11;80.95;100916.70;125452;1105;108118;-84
2023/12/07 12:17:36;;;;;;;30.40;13.00;;;;;;;-0.10;81.12;100921.98;116682;1105;10001250;-80
2023/12/07 12:20:20;;;;;;;31.63;13.23;;;;;;;-0.11;81.49;100927.02;126082;1104;101919;-81